createdAt,value
2018-12-12T00:00:08.099Z,4.53
2018-12-12T00:02:34.061Z,4.80
2018-12-12T00:05:00.049Z,4.53
2018-12-12T00:07:26.234Z,4.40
2018-12-12T00:09:52.278Z,4.70
2018-12-12T00:12:18.266Z,4.23
2018-12-12T00:14:44.274Z,4.63
2018-12-12T00:17:10.288Z,4.60
2018-12-12T00:19:43.204Z,4.70
2018-12-12T00:22:09.211Z,4.50
2018-12-12T00:24:35.171Z,5.00
2018-12-12T00:27:01.184Z,4.53
2018-12-12T00:29:27.147Z,4.60
2018-12-12T00:31:53.134Z,4.80
2018-12-12T00:34:19.117Z,4.90
2018-12-12T00:36:45.073Z,4.57
2018-12-12T00:39:11.091Z,5.40
2018-12-12T00:41:37.033Z,4.60
2018-12-12T00:44:03.008Z,5.00
2018-12-12T00:46:29.083Z,5.00
2018-12-12T00:48:55.184Z,5.13
2018-12-12T00:51:21.205Z,4.10
2018-12-12T00:53:47.148Z,5.17
2018-12-12T00:56:13.154Z,4.83
2018-12-12T00:58:39.849Z,4.50
2018-12-12T01:01:05.901Z,4.23
2018-12-12T01:03:32.346Z,4.80
2018-12-12T01:05:58.338Z,4.73
2018-12-12T01:08:24.316Z,4.50
2018-12-12T01:10:52.324Z,4.73
2018-12-12T01:13:18.327Z,4.77
2018-12-12T01:15:44.818Z,4.87
2018-12-12T01:18:10.806Z,4.50
2018-12-12T01:20:36.788Z,4.40
2018-12-12T01:23:02.798Z,5.20
2018-12-12T01:25:28.785Z,4.90
2018-12-12T01:27:54.775Z,4.87
2018-12-12T01:30:22.225Z,4.83
2018-12-12T01:32:48.181Z,4.87
2018-12-12T01:35:14.173Z,4.93
2018-12-12T01:37:40.156Z,4.63
2018-12-12T01:40:06.102Z,5.00
2018-12-12T01:42:32.105Z,5.10
2018-12-12T01:44:58.716Z,4.70
2018-12-12T01:47:24.710Z,5.23
2018-12-12T01:49:50.673Z,5.43
2018-12-12T01:52:16.816Z,5.17
2018-12-12T01:54:42.795Z,4.70
2018-12-12T01:57:08.756Z,4.90
2018-12-12T01:59:34.746Z,4.90
2018-12-12T02:02:00.722Z,4.83
2018-12-12T02:04:26.720Z,5.07
2018-12-12T02:06:52.684Z,4.80
2018-12-12T02:09:18.683Z,4.67
2018-12-12T02:11:44.654Z,5.50
2018-12-12T02:14:10.652Z,4.77
2018-12-12T02:16:36.608Z,5.07
2018-12-12T02:19:02.629Z,5.27
2018-12-12T02:21:28.570Z,4.93
2018-12-12T02:23:54.552Z,4.83
2018-12-12T02:26:20.518Z,4.80
2018-12-12T02:28:46.590Z,5.23
2018-12-12T02:31:12.685Z,5.30
2018-12-12T02:33:38.676Z,5.20
2018-12-12T02:36:04.644Z,5.33
2018-12-12T02:38:30.704Z,5.70
2018-12-12T02:40:56.661Z,5.73
2018-12-12T02:43:22.665Z,5.70
2018-12-12T02:45:48.702Z,5.50
2018-12-12T02:48:15.322Z,5.13
2018-12-12T02:50:41.407Z,5.60
2018-12-12T02:53:07.394Z,5.97
2018-12-12T02:55:33.383Z,5.67
2018-12-12T02:57:59.340Z,5.80
2018-12-12T03:00:26.329Z,5.90
2018-12-12T03:02:52.299Z,6.40
2018-12-12T03:05:25.257Z,5.67
2018-12-12T03:07:51.236Z,6.10
2018-12-12T03:10:17.265Z,6.00
2018-12-12T03:12:43.239Z,5.63
2018-12-12T03:15:09.208Z,5.93
2018-12-12T03:17:35.285Z,6.23
2018-12-12T03:20:01.256Z,6.13
2018-12-12T03:22:27.265Z,6.70
2018-12-12T03:24:53.221Z,6.10
2018-12-12T03:27:19.235Z,6.40
2018-12-12T03:29:45.417Z,6.47
2018-12-12T03:32:11.584Z,6.80
2018-12-12T03:34:37.662Z,6.20
2018-12-12T03:37:03.661Z,6.30
2018-12-12T03:39:29.858Z,6.50
2018-12-12T03:41:55.979Z,6.30
2018-12-12T03:44:21.948Z,6.20
2018-12-12T03:46:47.938Z,6.47
2018-12-12T03:49:13.994Z,6.30
2018-12-12T03:51:39.968Z,6.03
2018-12-12T03:54:05.966Z,6.63
2018-12-12T03:56:32.059Z,5.93
2018-12-12T03:58:58.002Z,5.97
2018-12-12T04:01:24.019Z,5.70
2018-12-12T04:03:50.008Z,5.77
2018-12-12T04:06:16.135Z,6.03
2018-12-12T04:08:42.125Z,6.10
2018-12-12T04:11:08.091Z,5.80
2018-12-12T04:13:34.194Z,5.73
2018-12-12T04:16:00.198Z,5.57
2018-12-12T04:18:26.204Z,6.00
2018-12-12T04:20:52.292Z,6.37
2018-12-12T04:23:19.435Z,6.03
2018-12-12T04:25:45.479Z,6.47
2018-12-12T04:28:11.547Z,6.23
2018-12-12T04:30:37.542Z,6.37
2018-12-12T04:33:03.519Z,6.00
2018-12-12T04:35:36.513Z,5.70
2018-12-12T04:38:02.516Z,6.53
2018-12-12T04:40:28.487Z,6.07
2018-12-12T04:42:54.473Z,6.20
2018-12-12T04:45:20.458Z,6.10
2018-12-12T04:47:46.455Z,5.90
2018-12-12T04:50:12.427Z,6.20
2018-12-12T04:52:38.442Z,6.13
2018-12-12T04:55:04.441Z,5.87
2018-12-12T04:57:30.556Z,6.07
2018-12-12T04:59:56.529Z,5.90
2018-12-12T05:02:24.628Z,5.93
2018-12-12T05:04:51.154Z,5.60
2018-12-12T05:07:17.152Z,5.23
2018-12-12T05:09:43.145Z,5.60
2018-12-12T05:12:09.104Z,5.90
2018-12-12T05:14:35.100Z,6.00
2018-12-12T05:17:01.081Z,6.37
2018-12-12T05:19:27.025Z,6.30
2018-12-12T05:21:53.787Z,5.97
2018-12-12T05:24:19.743Z,6.07
2018-12-12T05:26:45.745Z,6.23
2018-12-12T05:29:11.747Z,6.07
2018-12-12T05:31:37.745Z,5.53
2018-12-12T05:34:03.742Z,5.83
2018-12-12T05:36:29.708Z,5.70
2018-12-12T05:38:55.696Z,6.20
2018-12-12T05:41:21.650Z,5.70
2018-12-12T05:43:47.633Z,6.30
2018-12-12T05:46:13.619Z,6.27
2018-12-12T05:48:39.576Z,6.00
2018-12-12T05:51:05.576Z,5.93
2018-12-12T05:53:31.554Z,6.50
2018-12-12T05:56:02.686Z,6.33
2018-12-12T05:58:29.063Z,5.60
2018-12-12T06:00:55.067Z,5.90
2018-12-12T06:03:21.063Z,5.63
2018-12-12T06:05:47.596Z,6.30
2018-12-12T06:08:13.633Z,5.70
2018-12-12T06:10:39.580Z,6.10
2018-12-12T06:13:05.576Z,6.10
2018-12-12T06:15:32.527Z,6.23
2018-12-12T06:17:58.509Z,6.10
2018-12-12T06:20:24.523Z,5.20
2018-12-12T06:22:50.471Z,6.07
2018-12-12T06:25:16.476Z,6.10
2018-12-12T06:27:42.429Z,6.23
2018-12-12T06:30:08.419Z,5.90
2018-12-12T06:32:35.660Z,6.37
2018-12-12T06:35:01.934Z,5.60
2018-12-12T06:37:27.899Z,6.00
2018-12-12T06:39:53.852Z,5.77
2018-12-12T06:42:19.844Z,5.90
2018-12-12T06:44:45.813Z,5.50
2018-12-12T06:47:11.848Z,5.90
2018-12-12T06:49:37.822Z,5.63
2018-12-12T06:52:03.793Z,5.60
2018-12-12T06:54:29.789Z,5.67
2018-12-12T06:56:55.732Z,6.00
2018-12-12T06:59:21.730Z,5.70
2018-12-12T07:01:47.959Z,6.13
2018-12-12T07:04:13.955Z,6.10
2018-12-12T07:06:40.006Z,6.07
2018-12-12T07:09:06.292Z,6.30
2018-12-12T07:11:32.302Z,6.10
2018-12-12T07:13:58.276Z,6.03
2018-12-12T07:16:24.330Z,6.30
2018-12-12T07:18:50.288Z,6.00
2018-12-12T07:21:16.292Z,6.13
2018-12-12T07:23:42.274Z,6.07
2018-12-12T07:26:08.293Z,6.80
2018-12-12T07:28:34.256Z,6.03
2018-12-12T07:31:00.270Z,6.90
2018-12-12T07:33:26.281Z,6.60
2018-12-12T07:35:52.297Z,6.37
2018-12-12T07:38:18.316Z,6.13
2018-12-12T07:40:44.291Z,5.60
2018-12-12T07:43:10.296Z,5.87
2018-12-12T07:45:36.305Z,6.23
2018-12-12T07:48:02.287Z,5.90
2018-12-12T07:50:28.295Z,6.03
2018-12-12T07:52:54.263Z,6.60
2018-12-12T07:55:20.398Z,6.20
2018-12-12T07:57:46.493Z,6.37
2018-12-12T08:00:12.481Z,6.07
2018-12-12T08:02:38.481Z,6.23
2018-12-12T08:05:04.551Z,6.40
2018-12-12T08:07:30.553Z,7.60
2018-12-12T08:09:56.535Z,6.60
2018-12-12T08:12:22.543Z,6.23
2018-12-12T08:14:48.528Z,6.30
2018-12-12T08:17:14.546Z,6.43
2018-12-12T08:19:40.508Z,6.03
2018-12-12T08:22:06.516Z,6.27
2018-12-12T08:24:32.508Z,6.53
2018-12-12T08:26:58.570Z,6.07
2018-12-12T08:29:24.635Z,5.97
2018-12-12T08:31:50.590Z,5.87
2018-12-12T08:34:16.588Z,6.30
2018-12-12T08:36:42.584Z,6.47
2018-12-12T08:39:08.592Z,6.10
2018-12-12T08:41:34.568Z,6.20
2018-12-12T08:44:00.544Z,7.30
2018-12-12T08:46:26.576Z,7.10
2018-12-12T08:48:52.528Z,6.30
2018-12-12T08:51:18.530Z,6.17
2018-12-12T08:53:44.507Z,6.17
2018-12-12T08:56:17.516Z,6.33
2018-12-12T08:58:43.560Z,6.50
2018-12-12T09:01:09.615Z,6.57
2018-12-12T09:03:35.567Z,6.60
2018-12-12T09:06:01.601Z,6.37
2018-12-12T09:08:27.573Z,6.50
2018-12-12T09:10:53.657Z,6.27
2018-12-12T09:13:19.724Z,5.83
2018-12-12T09:15:45.737Z,5.83
2018-12-12T09:18:11.829Z,6.33
2018-12-12T09:20:37.822Z,5.60
2018-12-12T09:23:03.764Z,5.37
2018-12-12T09:25:29.768Z,6.23
2018-12-12T09:27:55.742Z,6.37
2018-12-12T09:30:21.788Z,6.27
2018-12-12T09:32:47.768Z,6.40
2018-12-12T09:35:13.770Z,6.07
2018-12-12T09:37:39.752Z,6.10
2018-12-12T09:40:05.779Z,6.10
2018-12-12T09:42:31.739Z,5.83
2018-12-12T09:44:57.730Z,6.03
2018-12-12T09:47:24.658Z,6.00
2018-12-12T09:49:50.665Z,5.87
2018-12-12T09:52:16.743Z,6.10
2018-12-12T09:54:42.826Z,5.73
2018-12-12T09:57:08.890Z,6.23
2018-12-12T09:59:36.230Z,5.53
2018-12-12T10:02:02.458Z,5.70
2018-12-12T10:04:28.464Z,5.97
2018-12-12T10:06:54.446Z,5.77
2018-12-12T10:09:20.973Z,5.70
2018-12-12T10:11:46.920Z,5.17
2018-12-12T10:14:12.965Z,5.60
2018-12-12T10:16:38.929Z,5.50
2018-12-12T10:19:04.912Z,5.50
2018-12-12T10:21:30.882Z,5.60
2018-12-12T10:23:56.846Z,5.90
2018-12-12T10:26:22.800Z,5.90
2018-12-12T10:28:48.816Z,5.90
2018-12-12T10:31:14.786Z,6.10
2018-12-12T10:33:40.744Z,5.90
2018-12-12T10:36:06.730Z,5.57
2018-12-12T10:38:33.336Z,5.50
2018-12-12T10:40:59.566Z,5.70
2018-12-12T10:43:25.532Z,5.80
2018-12-12T10:45:51.622Z,5.57
2018-12-12T10:48:17.617Z,5.90
2018-12-12T10:50:43.599Z,5.93
2018-12-12T10:53:09.764Z,5.53
2018-12-12T10:55:35.943Z,5.30
2018-12-12T10:58:01.905Z,6.17
2018-12-12T11:00:27.901Z,5.67
2018-12-12T11:03:00.069Z,5.50
2018-12-12T11:05:26.213Z,5.53
2018-12-12T11:07:52.239Z,5.80
2018-12-12T11:10:18.223Z,5.60
2018-12-12T11:12:44.247Z,5.60
2018-12-12T11:15:10.229Z,5.83
2018-12-12T11:17:36.226Z,6.50
2018-12-12T11:20:02.423Z,5.67
2018-12-12T11:22:28.424Z,5.30
2018-12-12T11:24:54.422Z,5.73
2018-12-12T11:27:20.419Z,6.33
2018-12-12T11:29:46.444Z,5.97
2018-12-12T11:32:12.420Z,5.97
2018-12-12T11:34:38.437Z,5.40
2018-12-12T11:37:04.446Z,6.10
2018-12-12T11:39:30.395Z,5.57
2018-12-12T11:41:56.418Z,5.70
2018-12-12T11:44:22.388Z,5.50
2018-12-12T11:46:48.518Z,5.67
2018-12-12T11:49:14.580Z,5.87
2018-12-12T11:51:40.558Z,6.20
2018-12-12T11:54:06.575Z,5.93
2018-12-12T11:56:32.539Z,5.90
2018-12-12T11:58:58.537Z,6.50
2018-12-12T12:01:24.486Z,5.90
2018-12-12T12:03:56.626Z,6.03
2018-12-12T12:06:18.458Z,6.20
2018-12-12T12:08:44.470Z,5.90
2018-12-12T12:11:10.435Z,5.43
2018-12-12T12:13:36.428Z,5.87
2018-12-12T12:16:02.426Z,6.00
2018-12-12T12:18:28.453Z,6.47
2018-12-12T12:20:54.434Z,6.13
2018-12-12T12:23:20.449Z,5.50
2018-12-12T12:25:46.395Z,5.10
2018-12-12T12:28:12.393Z,4.90
2018-12-12T12:30:38.488Z,5.13
2018-12-12T12:33:04.429Z,5.10
2018-12-12T12:35:30.421Z,5.23
2018-12-12T12:37:56.389Z,5.00
2018-12-12T12:40:22.355Z,5.17
2018-12-12T12:42:48.345Z,4.87
2018-12-12T12:45:14.316Z,4.87
2018-12-12T12:47:40.342Z,5.13
2018-12-12T12:50:06.287Z,4.80
2018-12-12T12:52:32.297Z,4.60
2018-12-12T12:54:58.303Z,5.03
2018-12-12T12:57:24.372Z,5.03
2018-12-12T12:59:50.358Z,5.00
2018-12-12T13:02:16.422Z,4.40
2018-12-12T13:04:43.082Z,4.70
2018-12-12T13:07:09.059Z,4.80
2018-12-12T13:09:36.417Z,6.33
2018-12-12T13:12:02.422Z,5.50
2018-12-12T13:14:28.585Z,5.47
2018-12-12T13:16:54.533Z,4.97
2018-12-12T13:19:20.437Z,5.23
2018-12-12T13:21:46.379Z,4.70
2018-12-12T13:24:12.475Z,5.30
2018-12-12T13:26:38.418Z,4.80
2018-12-12T13:29:04.336Z,4.70
2018-12-12T13:31:30.294Z,5.10
2018-12-12T13:33:56.188Z,5.10
2018-12-12T13:36:22.138Z,4.53
2018-12-12T13:38:48.383Z,5.57
2018-12-12T13:41:14.282Z,5.73
2018-12-12T13:43:40.209Z,5.17
2018-12-12T13:46:06.109Z,5.13
2018-12-12T13:48:32.062Z,5.43
2018-12-12T13:50:57.973Z,5.00
2018-12-12T13:53:23.915Z,4.63
2018-12-12T13:55:49.857Z,4.97
2018-12-12T13:58:15.883Z,5.23
2018-12-12T14:00:41.821Z,4.67
2018-12-12T14:03:07.731Z,4.80
2018-12-12T14:05:33.699Z,4.83
2018-12-12T14:07:59.592Z,5.30
2018-12-12T14:10:25.591Z,4.47
2018-12-12T14:12:51.600Z,4.47
2018-12-12T14:15:17.517Z,4.83
2018-12-12T14:17:43.435Z,4.50
2018-12-12T14:20:09.353Z,4.47
2018-12-12T14:22:35.338Z,4.53
2018-12-12T14:25:01.263Z,4.40
2018-12-12T14:27:27.285Z,4.60
2018-12-12T14:29:53.179Z,4.83
2018-12-12T14:32:19.173Z,4.80
2018-12-12T14:34:52.170Z,5.07
2018-12-12T14:37:18.082Z,4.50
2018-12-12T14:39:44.028Z,4.50
2018-12-12T14:42:09.970Z,5.87
2018-12-12T14:44:35.889Z,9.27
2018-12-12T14:47:01.849Z,6.60
2018-12-12T14:49:27.882Z,7.07
2018-12-12T14:51:53.827Z,9.53
2018-12-12T14:54:19.730Z,8.80
2018-12-12T14:56:45.644Z,6.70
2018-12-12T14:59:11.590Z,6.23
2018-12-12T15:01:37.532Z,8.43
2018-12-12T15:04:03.474Z,6.50
2018-12-12T15:06:29.518Z,10.00
2018-12-12T15:08:55.520Z,6.70
2018-12-12T15:11:21.552Z,11.43
2018-12-12T15:13:47.577Z,9.50
2018-12-12T15:16:13.535Z,6.27
2018-12-12T15:18:39.474Z,5.77
2018-12-12T15:21:05.407Z,6.33
2018-12-12T15:23:31.372Z,5.83
2018-12-12T15:25:57.304Z,6.17
2018-12-12T15:28:23.277Z,5.70
2018-12-12T15:30:49.252Z,5.33
2018-12-12T15:33:15.223Z,5.90
2018-12-12T15:35:42.177Z,6.00
2018-12-12T15:38:08.153Z,6.20
2018-12-12T15:40:34.167Z,5.43
2018-12-12T15:43:00.939Z,5.67
2018-12-12T15:45:27.039Z,5.10
2018-12-12T15:47:53.063Z,5.20
2018-12-12T15:50:19.080Z,8.03
2018-12-12T15:52:45.030Z,5.67
2018-12-12T15:55:11.056Z,5.37
2018-12-12T15:57:37.043Z,9.27
2018-12-12T16:00:04.363Z,5.53
2018-12-12T16:02:31.233Z,6.50
2018-12-12T16:04:57.240Z,5.00
2018-12-12T16:07:23.249Z,5.27
2018-12-12T16:09:49.299Z,4.27
2018-12-12T16:12:15.310Z,4.47
2018-12-12T16:14:41.341Z,4.40
2018-12-12T16:17:07.422Z,4.33
2018-12-12T16:19:33.506Z,4.10
2018-12-12T16:21:59.852Z,4.93
2018-12-12T16:24:25.850Z,5.83
2018-12-12T16:26:51.940Z,4.57
2018-12-12T16:29:17.997Z,5.43
2018-12-12T16:31:44.011Z,5.03
2018-12-12T16:34:10.093Z,5.10
2018-12-12T16:36:36.955Z,5.23
2018-12-12T16:39:05.645Z,5.40
2018-12-12T16:41:31.765Z,5.80
2018-12-12T16:43:58.556Z,6.80
2018-12-12T16:46:24.666Z,4.40
2018-12-12T16:48:52.838Z,4.20
2018-12-12T16:51:18.877Z,3.93
2018-12-12T16:53:44.946Z,3.90
2018-12-12T16:56:10.937Z,4.10
2018-12-12T16:58:37.068Z,4.43
2018-12-12T17:01:03.177Z,4.63
2018-12-12T17:03:37.010Z,4.47
2018-12-12T17:06:05.371Z,5.20
2018-12-12T17:08:31.400Z,4.80
2018-12-12T17:10:57.488Z,4.03
2018-12-12T17:13:23.501Z,4.00
2018-12-12T17:15:49.519Z,4.17
2018-12-12T17:18:15.513Z,3.93
2018-12-12T17:20:41.654Z,3.93
2018-12-12T17:23:08.732Z,3.63
2018-12-12T17:25:34.758Z,3.93
2018-12-12T17:28:00.753Z,4.17
2018-12-12T17:30:27.918Z,3.90
2018-12-12T17:32:53.954Z,3.90
2018-12-12T17:35:20.654Z,4.27
2018-12-12T17:37:46.728Z,4.03
2018-12-12T17:40:12.850Z,4.10
2018-12-12T17:42:39.099Z,3.70
2018-12-12T17:45:05.890Z,4.13
2018-12-12T17:47:32.080Z,3.77
2018-12-12T17:49:58.416Z,3.93
2018-12-12T17:52:24.462Z,3.60
2018-12-12T17:54:57.509Z,3.73
2018-12-12T17:57:23.936Z,3.40
2018-12-12T17:59:50.322Z,3.63
2018-12-12T18:02:23.627Z,3.57
2018-12-12T18:04:49.896Z,3.60
2018-12-12T18:07:15.893Z,3.33
2018-12-12T18:09:42.806Z,3.20
2018-12-12T18:12:09.761Z,3.17
2018-12-12T18:14:36.215Z,3.43
2018-12-12T18:17:02.700Z,3.50
2018-12-12T18:19:29.005Z,3.67
2018-12-12T18:21:56.981Z,3.63
2018-12-12T18:24:23.802Z,3.73
2018-12-12T18:26:49.912Z,3.53
2018-12-12T18:29:17.355Z,3.73
2018-12-12T18:31:44.325Z,3.80
2018-12-12T18:34:11.571Z,3.97
2018-12-12T18:36:38.054Z,4.20
2018-12-12T18:39:05.421Z,3.90
2018-12-12T18:41:31.836Z,4.20
2018-12-12T18:43:57.906Z,3.63
2018-12-12T18:46:24.857Z,4.00
2018-12-12T18:48:51.320Z,4.53
2018-12-12T18:51:25.687Z,4.23
2018-12-12T18:53:51.872Z,4.10
2018-12-12T18:56:18.863Z,4.20
2018-12-12T18:58:45.229Z,4.13
2018-12-12T19:01:14.122Z,4.20
2018-12-12T19:03:41.090Z,4.60
2018-12-12T19:06:08.570Z,4.33
2018-12-12T19:08:37.725Z,4.50
2018-12-12T19:13:38.216Z,4.43
2018-12-12T19:16:04.670Z,5.10
2018-12-12T19:18:30.729Z,5.60
2018-12-12T19:21:00.203Z,5.87
2018-12-12T19:23:28.193Z,5.47
2018-12-12T19:25:55.962Z,5.33
2018-12-12T19:28:23.607Z,5.00
2018-12-12T19:30:50.456Z,4.83
2018-12-12T19:33:18.484Z,4.30
2018-12-12T19:35:45.213Z,4.37
2018-12-12T19:38:11.914Z,3.60
2018-12-12T19:40:42.735Z,2.93
2018-12-12T19:43:09.398Z,2.77
2018-12-12T19:45:37.239Z,3.13
2018-12-12T19:48:05.321Z,2.80
2018-12-12T19:50:32.487Z,2.80
2018-12-12T19:52:58.971Z,3.97
2018-12-12T19:55:25.847Z,2.70
2018-12-12T19:57:54.214Z,2.50
2018-12-12T20:00:20.530Z,4.00
2018-12-12T20:02:47.664Z,4.23
2018-12-12T20:05:13.853Z,2.43
2018-12-12T20:07:51.239Z,2.60
2018-12-12T20:10:17.537Z,2.53
2018-12-12T20:12:43.969Z,2.30
2018-12-12T20:15:12.960Z,2.50
2018-12-12T20:17:39.126Z,2.20
2018-12-12T20:20:06.743Z,12.33
2018-12-12T20:22:35.915Z,6.77
2018-12-12T20:25:03.802Z,8.93
2018-12-12T20:27:30.234Z,9.27
2018-12-12T20:29:58.866Z,9.23
2018-12-12T20:32:26.750Z,3.40
2018-12-12T20:34:54.669Z,3.53
2018-12-12T20:37:22.772Z,3.30
2018-12-12T20:39:51.883Z,3.37
2018-12-12T20:42:18.444Z,3.77
2018-12-12T20:44:49.956Z,4.00
2018-12-12T20:47:16.204Z,3.60
2018-12-12T20:49:42.916Z,4.00
2018-12-12T20:52:11.665Z,4.47
2018-12-12T20:54:39.383Z,4.20
2018-12-12T20:57:06.361Z,5.40
2018-12-12T20:59:34.454Z,5.40
2018-12-12T21:02:01.919Z,6.50
2018-12-12T21:04:29.575Z,6.17
2018-12-12T21:06:57.409Z,7.93
2018-12-12T21:09:24.286Z,8.53
2018-12-12T21:11:54.629Z,9.30
2018-12-12T21:14:21.919Z,7.83
2018-12-12T21:16:49.035Z,8.23
2018-12-12T21:19:15.192Z,7.63
2018-12-12T21:21:42.895Z,7.60
2018-12-12T21:24:09.087Z,9.40
2018-12-12T21:26:35.952Z,8.33
2018-12-12T21:29:02.158Z,8.87
2018-12-12T21:31:28.209Z,8.60
2018-12-12T21:33:54.518Z,9.23
2018-12-12T21:36:20.565Z,9.67
2018-12-12T21:38:49.790Z,9.67
2018-12-12T21:41:17.235Z,9.10
2018-12-12T21:43:44.872Z,9.50
2018-12-12T21:46:10.884Z,9.43
2018-12-12T21:48:38.380Z,8.87
2018-12-12T21:51:04.388Z,10.03
2018-12-12T21:53:30.725Z,9.90
2018-12-12T21:55:57.957Z,9.70
2018-12-12T21:58:24.080Z,24.40
2018-12-12T22:00:51.306Z,14.17
2018-12-12T22:03:19.056Z,11.17
2018-12-12T22:05:45.929Z,9.97
2018-12-12T22:08:11.937Z,10.57
2018-12-12T22:10:38.004Z,10.87
2018-12-12T22:13:07.740Z,11.60
2018-12-12T22:15:34.476Z,11.27
2018-12-12T22:18:01.297Z,10.80
2018-12-12T22:20:27.324Z,11.63
2018-12-12T22:22:53.747Z,11.07
2018-12-12T22:25:19.830Z,11.67
2018-12-12T22:27:45.868Z,11.47
2018-12-12T22:30:11.993Z,11.70
2018-12-12T22:32:38.043Z,11.70
2018-12-12T22:35:04.349Z,11.40
2018-12-12T22:37:37.481Z,10.57
2018-12-12T22:40:03.502Z,11.30
2018-12-12T22:42:29.566Z,11.07
2018-12-12T22:44:55.541Z,11.90
2018-12-12T22:47:21.550Z,12.00
2018-12-12T22:49:47.621Z,11.50
2018-12-12T22:52:14.105Z,12.40
2018-12-12T22:54:40.106Z,12.47
2018-12-12T22:57:06.085Z,11.57
2018-12-12T22:59:32.083Z,12.73
2018-12-12T23:01:58.069Z,12.77
2018-12-12T23:04:24.118Z,13.00
2018-12-12T23:06:50.049Z,14.07
2018-12-12T23:09:15.981Z,13.10
2018-12-12T23:11:41.952Z,12.70
2018-12-12T23:14:07.867Z,14.23
2018-12-12T23:16:33.884Z,13.13
2018-12-12T23:18:59.784Z,14.27
2018-12-12T23:21:25.718Z,14.20
2018-12-12T23:23:51.620Z,13.97
2018-12-12T23:26:17.553Z,14.23
2018-12-12T23:28:43.505Z,13.23
2018-12-12T23:31:09.424Z,12.83
2018-12-12T23:33:35.523Z,13.00
2018-12-12T23:36:01.421Z,14.37
2018-12-12T23:38:27.360Z,13.17
2018-12-12T23:40:53.310Z,12.87
2018-12-12T23:43:19.260Z,13.30
2018-12-12T23:45:45.189Z,13.23
2018-12-12T23:48:11.136Z,13.10
2018-12-12T23:50:37.063Z,12.30
2018-12-12T23:53:03.013Z,14.40
2018-12-12T23:55:29.025Z,14.20
2018-12-12T23:57:54.942Z,14.47
